Aviation Digital Data Service (ADDS)

Output produced by METARs form (0748 UTC 20 March 2019)
found at http://www.aviationweather.gov/metar/data/
 
Forecast for: FWKI (KAMUZU INTL AIRP, MW)
Text: TAF FWKI 200400Z 2006/2112 32009KT 9999 FEW020
Forecast period: 0600 to 0800 UTC 20 March 2019
Forecast type: FROM: standard forecast or significant change
Winds: from the NW (320 degrees) at 10 MPH (9 knots; 4.6 m/s)
Visibility: 6 or more miles 10+ km)
Ceiling: at least 12,000 feet AGL
Clouds: few clouds at 2000 feet AGL
Weather: no significant weather forecast for this period
Text: BECMG 2008/2010 BKN025
Forecast period: 0800 UTC 20 March 2019 to 1200 UTC 21 March 2019
Forecast type: BECOMING: Conditions expected to become as follows by 1000 UTC 20 March 2019
Winds: from the NW (320 degrees) at 10 MPH (9 knots; 4.6 m/s)
Visibility: 6 or more miles 10+ km)
Ceiling: 2500 feet AGL
Clouds: broken clouds at 2500 feet AGL
Weather: no significant weather forecast for this period
Text: PROB30
Forecast period: 1000 to 1600 UTC 20 March 2019
Forecast type: TEMPORARY: The following changes expected for less than half the time period
Visibility: 5 miles (8 km)
Ceiling: 2800 feet AGL
Clouds: few clouds at 2500 feet AGL
broken clouds at 2800 feet AGL
Weather: -TSRA  (light rain associated with thunderstorm(s))